sensor_id;sensor_type;location;lat;lon;timestamp;P1;durP1;ratioP1;P2;durP2;ratioP2
40849;SDS011;26571;41.610;25.380;2024-03-29T14:30:26;2.15;;;0.68;;
40849;SDS011;26571;41.610;25.380;2024-03-29T14:32:52;6.30;;;1.20;;
40849;SDS011;26571;41.610;25.380;2024-03-29T14:35:17;2.43;;;0.67;;
40849;SDS011;26571;41.610;25.380;2024-03-29T14:40:10;1.63;;;0.13;;
40849;SDS011;26571;41.610;25.380;2024-03-29T14:42:43;8.00;;;1.48;;
40849;SDS011;26571;41.610;25.380;2024-03-29T14:45:09;3.20;;;0.77;;
40849;SDS011;26571;41.610;25.380;2024-03-29T14:47:37;7.03;;;0.50;;
40849;SDS011;26571;41.610;25.380;2024-03-29T14:50:03;2.80;;;0.82;;
40849;SDS011;26571;41.610;25.380;2024-03-29T14:52:33;5.40;;;1.25;;
40849;SDS011;26571;41.610;25.380;2024-03-29T14:55:01;9.63;;;2.42;;
40849;SDS011;26571;41.610;25.380;2024-03-29T14:57:28;9.37;;;0.77;;
40849;SDS011;26571;41.610;25.380;2024-03-29T14:59:53;7.13;;;1.47;;
40849;SDS011;26571;41.610;25.380;2024-03-29T15:02:19;15.20;;;2.63;;
40849;SDS011;26571;41.610;25.380;2024-03-29T15:04:44;6.33;;;0.63;;
40849;SDS011;26571;41.610;25.380;2024-03-29T15:07:10;9.80;;;0.67;;
40849;SDS011;26571;41.610;25.380;2024-03-29T15:09:36;11.98;;;1.55;;
40849;SDS011;26571;41.610;25.380;2024-03-29T15:12:01;9.50;;;1.37;;
40849;SDS011;26571;41.610;25.380;2024-03-29T15:14:28;9.18;;;0.90;;
40849;SDS011;26571;41.610;25.380;2024-03-29T15:16:57;7.78;;;0.70;;
40849;SDS011;26571;41.610;25.380;2024-03-29T15:19:23;7.90;;;0.70;;
40849;SDS011;26571;41.610;25.380;2024-03-29T15:21:48;6.37;;;1.13;;
40849;SDS011;26571;41.610;25.380;2024-03-29T15:24:14;13.23;;;0.90;;
40849;SDS011;26571;41.610;25.380;2024-03-29T15:26:42;13.07;;;2.92;;
40849;SDS011;26571;41.610;25.380;2024-03-29T15:29:08;11.50;;;1.90;;
40849;SDS011;26571;41.610;25.380;2024-03-29T15:31:35;9.43;;;1.70;;
40849;SDS011;26571;41.610;25.380;2024-03-29T15:34:05;14.70;;;2.78;;
40849;SDS011;26571;41.610;25.380;2024-03-29T15:36:32;15.32;;;2.22;;
40849;SDS011;26571;41.610;25.380;2024-03-29T15:41:33;7.18;;;0.70;;
40849;SDS011;26571;41.610;25.380;2024-03-29T15:44:00;12.88;;;2.88;;
40849;SDS011;26571;41.610;25.380;2024-03-29T15:46:27;13.73;;;0.90;;
40849;SDS011;26571;41.610;25.380;2024-03-29T15:48:53;12.07;;;2.70;;
40849;SDS011;26571;41.610;25.380;2024-03-29T15:51:18;10.30;;;1.15;;
40849;SDS011;26571;41.610;25.380;2024-03-29T15:53:44;7.63;;;1.55;;
40849;SDS011;26571;41.610;25.380;2024-03-29T15:56:10;13.90;;;2.10;;
40849;SDS011;26571;41.610;25.380;2024-03-29T15:58:35;18.87;;;2.57;;
40849;SDS011;26571;41.610;25.380;2024-03-29T16:01:02;8.27;;;1.97;;
40849;SDS011;26571;41.610;25.380;2024-03-29T16:03:29;7.72;;;1.65;;
40849;SDS011;26571;41.610;25.380;2024-03-29T16:05:55;12.85;;;2.97;;
40849;SDS011;26571;41.610;25.380;2024-03-29T16:08:22;13.23;;;2.50;;
40849;SDS011;26571;41.610;25.380;2024-03-29T16:13:24;15.73;;;1.95;;
40849;SDS011;26571;41.610;25.380;2024-03-29T16:15:50;10.77;;;2.63;;
40849;SDS011;26571;41.610;25.380;2024-03-29T16:18:17;33.88;;;12.10;;
40849;SDS011;26571;41.610;25.380;2024-03-29T16:20:43;24.35;;;7.72;;
40849;SDS011;26571;41.610;25.380;2024-03-29T16:23:19;11.10;;;2.45;;
40849;SDS011;26571;41.610;25.380;2024-03-29T16:25:44;17.33;;;6.55;;
40849;SDS011;26571;41.610;25.380;2024-03-29T16:28:10;23.75;;;7.18;;
40849;SDS011;26571;41.610;25.380;2024-03-29T16:30:39;24.10;;;4.82;;
40849;SDS011;26571;41.610;25.380;2024-03-29T16:33:05;13.30;;;2.67;;
40849;SDS011;26571;41.610;25.380;2024-03-29T16:35:33;16.75;;;5.15;;
40849;SDS011;26571;41.610;25.380;2024-03-29T16:37:59;13.32;;;3.38;;
40849;SDS011;26571;41.610;25.380;2024-03-29T16:40:26;14.30;;;2.88;;
40849;SDS011;26571;41.610;25.380;2024-03-29T16:42:55;14.73;;;3.10;;
40849;SDS011;26571;41.610;25.380;2024-03-29T16:45:22;20.05;;;3.38;;
40849;SDS011;26571;41.610;25.380;2024-03-29T16:47:50;17.50;;;5.28;;
40849;SDS011;26571;41.610;25.380;2024-03-29T16:50:15;25.13;;;5.55;;
40849;SDS011;26571;41.610;25.380;2024-03-29T16:52:41;18.92;;;6.80;;
40849;SDS011;26571;41.610;25.380;2024-03-29T16:55:07;16.50;;;6.15;;
40849;SDS011;26571;41.610;25.380;2024-03-29T16:57:43;19.53;;;7.43;;
40849;SDS011;26571;41.610;25.380;2024-03-29T17:00:08;23.67;;;10.05;;
40849;SDS011;26571;41.610;25.380;2024-03-29T17:02:37;26.02;;;10.90;;
40849;SDS011;26571;41.610;25.380;2024-03-29T17:05:04;18.03;;;6.17;;
40849;SDS011;26571;41.610;25.380;2024-03-29T17:09:56;26.77;;;6.38;;
40849;SDS011;26571;41.610;25.380;2024-03-29T17:12:21;12.57;;;3.17;;
40849;SDS011;26571;41.610;25.380;2024-03-29T17:14:50;18.02;;;6.32;;
40849;SDS011;26571;41.610;25.380;2024-03-29T17:17:15;15.77;;;2.65;;
40849;SDS011;26571;41.610;25.380;2024-03-29T17:19:40;21.13;;;5.50;;
40849;SDS011;26571;41.610;25.380;2024-03-29T17:22:06;15.73;;;4.63;;
40849;SDS011;26571;41.610;25.380;2024-03-29T17:24:33;23.80;;;9.23;;
40849;SDS011;26571;41.610;25.380;2024-03-29T17:26:58;21.40;;;7.13;;
40849;SDS011;26571;41.610;25.380;2024-03-29T17:29:24;17.13;;;3.67;;
40849;SDS011;26571;41.610;25.380;2024-03-29T17:31:49;14.63;;;4.75;;
40849;SDS011;26571;41.610;25.380;2024-03-29T17:34:15;17.75;;;4.30;;
40849;SDS011;26571;41.610;25.380;2024-03-29T17:36:41;17.20;;;5.47;;
40849;SDS011;26571;41.610;25.380;2024-03-29T17:39:06;18.95;;;3.30;;
40849;SDS011;26571;41.610;25.380;2024-03-29T17:41:33;10.65;;;1.30;;
40849;SDS011;26571;41.610;25.380;2024-03-29T17:43:58;12.68;;;2.65;;
40849;SDS011;26571;41.610;25.380;2024-03-29T17:46:24;15.10;;;2.47;;
40849;SDS011;26571;41.610;25.380;2024-03-29T17:48:49;23.42;;;2.70;;
40849;SDS011;26571;41.610;25.380;2024-03-29T17:51:15;18.88;;;4.78;;
40849;SDS011;26571;41.610;25.380;2024-03-29T17:53:40;12.20;;;1.75;;
40849;SDS011;26571;41.610;25.380;2024-03-29T17:56:05;21.48;;;3.15;;
40849;SDS011;26571;41.610;25.380;2024-03-29T17:58:31;15.90;;;1.90;;
40849;SDS011;26571;41.610;25.380;2024-03-29T18:00:56;16.13;;;1.33;;
40849;SDS011;26571;41.610;25.380;2024-03-29T18:03:22;11.98;;;2.55;;
40849;SDS011;26571;41.610;25.380;2024-03-29T18:05:47;12.88;;;1.70;;
40849;SDS011;26571;41.610;25.380;2024-03-29T18:08:13;8.98;;;2.17;;
40849;SDS011;26571;41.610;25.380;2024-03-29T18:10:39;10.23;;;1.63;;
40849;SDS011;26571;41.610;25.380;2024-03-29T18:13:05;9.63;;;1.30;;
40849;SDS011;26571;41.610;25.380;2024-03-29T18:15:31;14.15;;;2.33;;
40849;SDS011;26571;41.610;25.380;2024-03-29T18:17:57;19.17;;;2.92;;
40849;SDS011;26571;41.610;25.380;2024-03-29T18:20:23;12.02;;;1.33;;
40849;SDS011;26571;41.610;25.380;2024-03-29T18:22:49;9.35;;;1.50;;
40849;SDS011;26571;41.610;25.380;2024-03-29T18:25:14;5.57;;;1.13;;
40849;SDS011;26571;41.610;25.380;2024-03-29T18:27:40;9.68;;;1.33;;
40849;SDS011;26571;41.610;25.380;2024-03-29T18:30:06;12.40;;;2.05;;
40849;SDS011;26571;41.610;25.380;2024-03-29T18:32:35;19.00;;;3.20;;
40849;SDS011;26571;41.610;25.380;2024-03-29T18:35:00;13.88;;;3.55;;
40849;SDS011;26571;41.610;25.380;2024-03-29T18:39:53;13.10;;;2.70;;
40849;SDS011;26571;41.610;25.380;2024-03-29T18:42:18;19.20;;;1.30;;
40849;SDS011;26571;41.610;25.380;2024-03-29T18:44:44;16.77;;;1.40;;
40849;SDS011;26571;41.610;25.380;2024-03-29T18:47:12;10.90;;;2.28;;
40849;SDS011;26571;41.610;25.380;2024-03-29T18:49:37;12.15;;;1.70;;
40849;SDS011;26571;41.610;25.380;2024-03-29T18:52:03;11.80;;;1.30;;
40849;SDS011;26571;41.610;25.380;2024-03-29T18:54:31;10.70;;;1.55;;
40849;SDS011;26571;41.610;25.380;2024-03-29T18:56:57;14.50;;;2.33;;
40849;SDS011;26571;41.610;25.380;2024-03-29T18:59:22;8.95;;;1.20;;
40849;SDS011;26571;41.610;25.380;2024-03-29T19:01:51;10.38;;;1.08;;
40849;SDS011;26571;41.610;25.380;2024-03-29T19:04:16;14.52;;;1.63;;
40849;SDS011;26571;41.610;25.380;2024-03-29T19:06:46;15.73;;;1.63;;
40849;SDS011;26571;41.610;25.380;2024-03-29T19:09:12;8.23;;;1.10;;
40849;SDS011;26571;41.610;25.380;2024-03-29T19:11:37;11.32;;;2.50;;
40849;SDS011;26571;41.610;25.380;2024-03-29T19:14:03;7.88;;;1.45;;
40849;SDS011;26571;41.610;25.380;2024-03-29T19:16:28;6.85;;;0.60;;
40849;SDS011;26571;41.610;25.380;2024-03-29T19:18:55;8.57;;;1.08;;
40849;SDS011;26571;41.610;25.380;2024-03-29T19:21:23;11.52;;;1.75;;
40849;SDS011;26571;41.610;25.380;2024-03-29T19:23:48;3.65;;;0.60;;
40849;SDS011;26571;41.610;25.380;2024-03-29T19:26:14;14.25;;;2.20;;
40849;SDS011;26571;41.610;25.380;2024-03-29T19:28:40;3.72;;;1.35;;
40849;SDS011;26571;41.610;25.380;2024-03-29T19:31:06;9.38;;;1.10;;
40849;SDS011;26571;41.610;25.380;2024-03-29T19:33:31;9.82;;;1.45;;
40849;SDS011;26571;41.610;25.380;2024-03-29T19:35:56;10.10;;;1.38;;
40849;SDS011;26571;41.610;25.380;2024-03-29T19:38:22;16.63;;;1.35;;
40849;SDS011;26571;41.610;25.380;2024-03-29T19:40:47;7.95;;;1.38;;
40849;SDS011;26571;41.610;25.380;2024-03-29T19:43:12;11.52;;;1.20;;
40849;SDS011;26571;41.610;25.380;2024-03-29T19:45:38;7.90;;;0.90;;
40849;SDS011;26571;41.610;25.380;2024-03-29T19:48:04;10.13;;;1.52;;
40849;SDS011;26571;41.610;25.380;2024-03-29T19:50:29;12.63;;;1.38;;
40849;SDS011;26571;41.610;25.380;2024-03-29T19:52:55;7.65;;;0.77;;
40849;SDS011;26571;41.610;25.380;2024-03-29T19:55:20;5.38;;;0.80;;
40849;SDS011;26571;41.610;25.380;2024-03-29T19:57:46;11.07;;;1.52;;
40849;SDS011;26571;41.610;25.380;2024-03-29T20:00:11;5.40;;;0.85;;
40849;SDS011;26571;41.610;25.380;2024-03-29T20:02:37;9.85;;;1.35;;
40849;SDS011;26571;41.610;25.380;2024-03-29T20:05:02;9.65;;;1.27;;
40849;SDS011;26571;41.610;25.380;2024-03-29T20:07:28;3.72;;;0.80;;
40849;SDS011;26571;41.610;25.380;2024-03-29T20:09:53;10.13;;;0.80;;
40849;SDS011;26571;41.610;25.380;2024-03-29T20:12:18;9.95;;;0.68;;
40849;SDS011;26571;41.610;25.380;2024-03-29T20:14:44;16.50;;;1.83;;
40849;SDS011;26571;41.610;25.380;2024-03-29T20:17:09;10.13;;;0.85;;
40849;SDS011;26571;41.610;25.380;2024-03-29T20:19:35;8.73;;;1.42;;
40849;SDS011;26571;41.610;25.380;2024-03-29T20:22:00;8.38;;;1.98;;
40849;SDS011;26571;41.610;25.380;2024-03-29T20:24:26;11.25;;;1.85;;
40849;SDS011;26571;41.610;25.380;2024-03-29T20:26:57;5.30;;;1.20;;
40849;SDS011;26571;41.610;25.380;2024-03-29T20:29:23;13.00;;;3.85;;
40849;SDS011;26571;41.610;25.380;2024-03-29T20:31:50;17.08;;;4.25;;
40849;SDS011;26571;41.610;25.380;2024-03-29T20:34:19;25.05;;;5.47;;
40849;SDS011;26571;41.610;25.380;2024-03-29T20:36:44;22.60;;;6.82;;
40849;SDS011;26571;41.610;25.380;2024-03-29T20:39:10;15.18;;;3.20;;
40849;SDS011;26571;41.610;25.380;2024-03-29T20:41:36;34.50;;;13.23;;
40849;SDS011;26571;41.610;25.380;2024-03-29T20:44:04;42.03;;;14.48;;
40849;SDS011;26571;41.610;25.380;2024-03-29T20:46:30;22.77;;;8.02;;
40849;SDS011;26571;41.610;25.380;2024-03-29T20:48:57;12.73;;;3.85;;
40849;SDS011;26571;41.610;25.380;2024-03-29T20:51:26;13.32;;;4.28;;
40849;SDS011;26571;41.610;25.380;2024-03-29T20:53:51;19.60;;;5.72;;
40849;SDS011;26571;41.610;25.380;2024-03-29T20:56:17;9.93;;;2.10;;
40849;SDS011;26571;41.610;25.380;2024-03-29T20:58:43;10.27;;;2.70;;
40849;SDS011;26571;41.610;25.380;2024-03-29T21:01:10;9.02;;;3.83;;
40849;SDS011;26571;41.610;25.380;2024-03-29T21:03:36;8.65;;;1.35;;
40849;SDS011;26571;41.610;25.380;2024-03-29T21:06:20;7.38;;;1.75;;
40849;SDS011;26571;41.610;25.380;2024-03-29T21:08:45;8.88;;;2.28;;
40849;SDS011;26571;41.610;25.380;2024-03-29T21:11:11;10.18;;;3.90;;
40849;SDS011;26571;41.610;25.380;2024-03-29T21:13:38;12.82;;;2.58;;
40849;SDS011;26571;41.610;25.380;2024-03-29T21:16:05;18.20;;;4.95;;
40849;SDS011;26571;41.610;25.380;2024-03-29T21:18:31;9.40;;;1.20;;
40849;SDS011;26571;41.610;25.380;2024-03-29T21:20:56;18.45;;;6.35;;
40849;SDS011;26571;41.610;25.380;2024-03-29T21:23:22;13.50;;;1.70;;
40849;SDS011;26571;41.610;25.380;2024-03-29T21:25:47;12.00;;;2.03;;
40849;SDS011;26571;41.610;25.380;2024-03-29T21:28:14;6.55;;;0.93;;
40849;SDS011;26571;41.610;25.380;2024-03-29T21:30:39;8.75;;;1.55;;
40849;SDS011;26571;41.610;25.380;2024-03-29T21:33:04;12.60;;;2.08;;
40849;SDS011;26571;41.610;25.380;2024-03-29T21:35:30;11.48;;;1.15;;
40849;SDS011;26571;41.610;25.380;2024-03-29T21:37:58;7.00;;;0.80;;
40849;SDS011;26571;41.610;25.380;2024-03-29T21:40:24;5.95;;;0.60;;
40849;SDS011;26571;41.610;25.380;2024-03-29T21:42:50;9.80;;;1.13;;
40849;SDS011;26571;41.610;25.380;2024-03-29T21:45:16;7.72;;;1.33;;
40849;SDS011;26571;41.610;25.380;2024-03-29T21:47:42;4.88;;;1.00;;
40849;SDS011;26571;41.610;25.380;2024-03-29T21:50:07;10.70;;;1.05;;
40849;SDS011;26571;41.610;25.380;2024-03-29T21:52:36;9.65;;;1.77;;
40849;SDS011;26571;41.610;25.380;2024-03-29T21:55:02;11.07;;;1.67;;
40849;SDS011;26571;41.610;25.380;2024-03-29T21:57:28;9.02;;;0.85;;
40849;SDS011;26571;41.610;25.380;2024-03-29T21:59:53;14.13;;;1.60;;
40849;SDS011;26571;41.610;25.380;2024-03-29T22:02:21;4.25;;;1.45;;
40849;SDS011;26571;41.610;25.380;2024-03-29T22:04:46;13.02;;;1.23;;
40849;SDS011;26571;41.610;25.380;2024-03-29T22:07:12;6.20;;;1.00;;
40849;SDS011;26571;41.610;25.380;2024-03-29T22:09:37;5.80;;;0.70;;
40849;SDS011;26571;41.610;25.380;2024-03-29T22:12:03;7.75;;;0.85;;
40849;SDS011;26571;41.610;25.380;2024-03-29T22:14:31;10.82;;;1.10;;
40849;SDS011;26571;41.610;25.380;2024-03-29T22:16:57;11.73;;;2.25;;
40849;SDS011;26571;41.610;25.380;2024-03-29T22:19:22;11.90;;;1.40;;
40849;SDS011;26571;41.610;25.380;2024-03-29T22:21:48;9.98;;;1.23;;
40849;SDS011;26571;41.610;25.380;2024-03-29T22:24:14;6.72;;;0.70;;
40849;SDS011;26571;41.610;25.380;2024-03-29T22:26:42;11.30;;;1.92;;
40849;SDS011;26571;41.610;25.380;2024-03-29T22:29:07;7.25;;;1.40;;
40849;SDS011;26571;41.610;25.380;2024-03-29T22:31:33;11.32;;;1.80;;
40849;SDS011;26571;41.610;25.380;2024-03-29T22:33:59;8.80;;;1.55;;
40849;SDS011;26571;41.610;25.380;2024-03-29T22:36:31;11.73;;;1.80;;
40849;SDS011;26571;41.610;25.380;2024-03-29T22:38:59;11.10;;;1.85;;
40849;SDS011;26571;41.610;25.380;2024-03-29T22:41:25;15.33;;;1.60;;
40849;SDS011;26571;41.610;25.380;2024-03-29T22:43:51;9.30;;;0.95;;
40849;SDS011;26571;41.610;25.380;2024-03-29T22:46:16;11.13;;;1.92;;
40849;SDS011;26571;41.610;25.380;2024-03-29T22:48:42;18.63;;;3.97;;
40849;SDS011;26571;41.610;25.380;2024-03-29T22:51:07;6.38;;;1.20;;
40849;SDS011;26571;41.610;25.380;2024-03-29T22:53:33;9.98;;;1.30;;
40849;SDS011;26571;41.610;25.380;2024-03-29T22:55:58;6.10;;;0.60;;
40849;SDS011;26571;41.610;25.380;2024-03-29T22:58:23;9.75;;;1.33;;
40849;SDS011;26571;41.610;25.380;2024-03-29T23:00:49;7.82;;;0.90;;
40849;SDS011;26571;41.610;25.380;2024-03-29T23:03:15;7.85;;;2.00;;
40849;SDS011;26571;41.610;25.380;2024-03-29T23:05:40;7.93;;;1.33;;
40849;SDS011;26571;41.610;25.380;2024-03-29T23:08:06;9.10;;;1.17;;
40849;SDS011;26571;41.610;25.380;2024-03-29T23:10:31;4.18;;;0.70;;
40849;SDS011;26571;41.610;25.380;2024-03-29T23:12:57;9.93;;;0.90;;
40849;SDS011;26571;41.610;25.380;2024-03-29T23:15:23;12.80;;;1.63;;
40849;SDS011;26571;41.610;25.380;2024-03-29T23:17:49;5.53;;;0.73;;
40849;SDS011;26571;41.610;25.380;2024-03-29T23:20:16;11.32;;;1.20;;
40849;SDS011;26571;41.610;25.380;2024-03-29T23:22:42;7.15;;;1.95;;
40849;SDS011;26571;41.610;25.380;2024-03-29T23:25:08;9.80;;;1.40;;
40849;SDS011;26571;41.610;25.380;2024-03-29T23:27:34;11.07;;;0.90;;
40849;SDS011;26571;41.610;25.380;2024-03-29T23:30:01;10.75;;;0.90;;
40849;SDS011;26571;41.610;25.380;2024-03-29T23:32:27;5.10;;;1.13;;
40849;SDS011;26571;41.610;25.380;2024-03-29T23:34:53;8.20;;;1.23;;
40849;SDS011;26571;41.610;25.380;2024-03-29T23:37:18;10.02;;;1.85;;
40849;SDS011;26571;41.610;25.380;2024-03-29T23:39:44;15.45;;;2.35;;
40849;SDS011;26571;41.610;25.380;2024-03-29T23:42:10;8.52;;;1.25;;
40849;SDS011;26571;41.610;25.380;2024-03-29T23:44:36;8.68;;;1.35;;
40849;SDS011;26571;41.610;25.380;2024-03-29T23:47:01;7.60;;;1.58;;
40849;SDS011;26571;41.610;25.380;2024-03-29T23:49:27;9.32;;;1.40;;
40849;SDS011;26571;41.610;25.380;2024-03-29T23:51:52;7.95;;;1.55;;
40849;SDS011;26571;41.610;25.380;2024-03-29T23:54:18;12.07;;;1.70;;
40849;SDS011;26571;41.610;25.380;2024-03-29T23:56:43;8.27;;;1.65;;
40849;SDS011;26571;41.610;25.380;2024-03-29T23:59:09;9.52;;;0.95;;
